sensor_id;sensor_type;location;lat;lon;timestamp;P1;durP1;ratioP1;P2;durP2;ratioP2
2053;SDS011;1032;52.542;13.440;2023-02-24T00:00:25;66.67;;;25.03;;
2053;SDS011;1032;52.542;13.440;2023-02-24T00:03:01;61.20;;;23.23;;
2053;SDS011;1032;52.542;13.440;2023-02-24T00:05:32;46.40;;;21.63;;
2053;SDS011;1032;52.542;13.440;2023-02-24T00:08:00;49.83;;;24.00;;
2053;SDS011;1032;52.542;13.440;2023-02-24T00:10:26;48.83;;;22.60;;
2053;SDS011;1032;52.542;13.440;2023-02-24T00:12:53;52.30;;;23.80;;
2053;SDS011;1032;52.542;13.440;2023-02-24T00:15:20;48.40;;;22.80;;
2053;SDS011;1032;52.542;13.440;2023-02-24T00:17:48;44.10;;;21.10;;
2053;SDS011;1032;52.542;13.440;2023-02-24T00:20:15;43.00;;;21.60;;
2053;SDS011;1032;52.542;13.440;2023-02-24T00:22:43;47.90;;;22.37;;
2053;SDS011;1032;52.542;13.440;2023-02-24T00:25:09;47.87;;;24.90;;
2053;SDS011;1032;52.542;13.440;2023-02-24T00:27:38;45.17;;;21.60;;
2053;SDS011;1032;52.542;13.440;2023-02-24T00:30:07;44.33;;;21.40;;
2053;SDS011;1032;52.542;13.440;2023-02-24T00:32:36;39.60;;;19.23;;
2053;SDS011;1032;52.542;13.440;2023-02-24T00:35:05;42.40;;;20.37;;
2053;SDS011;1032;52.542;13.440;2023-02-24T00:37:33;50.43;;;19.83;;
2053;SDS011;1032;52.542;13.440;2023-02-24T00:40:00;45.80;;;20.17;;
2053;SDS011;1032;52.542;13.440;2023-02-24T00:42:35;40.30;;;18.47;;
2053;SDS011;1032;52.542;13.440;2023-02-24T00:45:02;38.80;;;18.50;;
2053;SDS011;1032;52.542;13.440;2023-02-24T00:47:35;38.67;;;19.10;;
2053;SDS011;1032;52.542;13.440;2023-02-24T00:50:05;42.97;;;19.07;;
2053;SDS011;1032;52.542;13.440;2023-02-24T00:52:33;37.80;;;18.50;;
2053;SDS011;1032;52.542;13.440;2023-02-24T00:55:00;34.80;;;15.50;;
2053;SDS011;1032;52.542;13.440;2023-02-24T00:57:37;35.97;;;14.00;;
2053;SDS011;1032;52.542;13.440;2023-02-24T01:00:05;34.23;;;15.50;;
2053;SDS011;1032;52.542;13.440;2023-02-24T01:02:40;27.03;;;13.43;;
2053;SDS011;1032;52.542;13.440;2023-02-24T01:05:10;30.80;;;13.60;;
2053;SDS011;1032;52.542;13.440;2023-02-24T01:07:37;19.67;;;11.17;;
2053;SDS011;1032;52.542;13.440;2023-02-24T01:10:04;17.40;;;8.50;;
2053;SDS011;1032;52.542;13.440;2023-02-24T01:12:32;17.03;;;6.87;;
2053;SDS011;1032;52.542;13.440;2023-02-24T01:15:14;14.63;;;7.10;;
2053;SDS011;1032;52.542;13.440;2023-02-24T01:17:41;21.17;;;7.83;;
2053;SDS011;1032;52.542;13.440;2023-02-24T01:20:10;13.70;;;7.07;;
2053;SDS011;1032;52.542;13.440;2023-02-24T01:22:43;17.43;;;7.30;;
2053;SDS011;1032;52.542;13.440;2023-02-24T01:25:11;22.40;;;7.80;;
2053;SDS011;1032;52.542;13.440;2023-02-24T01:27:39;20.37;;;7.40;;
2053;SDS011;1032;52.542;13.440;2023-02-24T01:30:07;13.53;;;6.20;;
2053;SDS011;1032;52.542;13.440;2023-02-24T01:32:39;19.23;;;6.63;;
2053;SDS011;1032;52.542;13.440;2023-02-24T01:35:07;18.07;;;7.17;;
2053;SDS011;1032;52.542;13.440;2023-02-24T01:37:38;14.23;;;5.57;;
2053;SDS011;1032;52.542;13.440;2023-02-24T01:40:09;20.10;;;6.53;;
2053;SDS011;1032;52.542;13.440;2023-02-24T01:42:42;20.63;;;6.20;;
2053;SDS011;1032;52.542;13.440;2023-02-24T01:45:17;13.07;;;4.87;;
2053;SDS011;1032;52.542;13.440;2023-02-24T01:47:46;15.47;;;5.73;;
2053;SDS011;1032;52.542;13.440;2023-02-24T01:50:15;20.80;;;6.00;;
2053;SDS011;1032;52.542;13.440;2023-02-24T01:52:46;22.33;;;6.50;;
2053;SDS011;1032;52.542;13.440;2023-02-24T01:55:20;15.23;;;5.90;;
2053;SDS011;1032;52.542;13.440;2023-02-24T01:57:53;15.90;;;5.37;;
2053;SDS011;1032;52.542;13.440;2023-02-24T02:00:21;20.07;;;5.77;;
2053;SDS011;1032;52.542;13.440;2023-02-24T02:03:03;26.03;;;5.80;;
2053;SDS011;1032;52.542;13.440;2023-02-24T02:05:39;16.77;;;6.47;;
2053;SDS011;1032;52.542;13.440;2023-02-24T02:08:09;16.53;;;4.90;;
2053;SDS011;1032;52.542;13.440;2023-02-24T02:10:38;23.10;;;5.37;;
2053;SDS011;1032;52.542;13.440;2023-02-24T02:13:08;11.40;;;3.30;;
2053;SDS011;1032;52.542;13.440;2023-02-24T02:15:39;12.27;;;4.27;;
2053;SDS011;1032;52.542;13.440;2023-02-24T02:18:14;14.80;;;4.10;;
2053;SDS011;1032;52.542;13.440;2023-02-24T02:21:09;16.53;;;3.87;;
2053;SDS011;1032;52.542;13.440;2023-02-24T02:24:08;11.90;;;3.67;;
2053;SDS011;1032;52.542;13.440;2023-02-24T02:30:02;9.37;;;3.10;;
2053;SDS011;1032;52.542;13.440;2023-02-24T02:36:00;18.90;;;3.17;;
2053;SDS011;1032;52.542;13.440;2023-02-24T02:38:38;11.50;;;2.77;;
2053;SDS011;1032;52.542;13.440;2023-02-24T02:41:16;14.77;;;3.23;;
2053;SDS011;1032;52.542;13.440;2023-02-24T02:43:49;16.93;;;3.67;;
2053;SDS011;1032;52.542;13.440;2023-02-24T02:46:24;8.43;;;2.60;;
2053;SDS011;1032;52.542;13.440;2023-02-24T02:49:00;16.93;;;3.47;;
2053;SDS011;1032;52.542;13.440;2023-02-24T02:51:35;11.00;;;3.20;;
2053;SDS011;1032;52.542;13.440;2023-02-24T02:54:08;13.77;;;3.13;;
2053;SDS011;1032;52.542;13.440;2023-02-24T02:56:41;13.90;;;3.40;;
2053;SDS011;1032;52.542;13.440;2023-02-24T02:59:14;9.93;;;2.60;;
2053;SDS011;1032;52.542;13.440;2023-02-24T03:01:46;12.87;;;3.10;;
2053;SDS011;1032;52.542;13.440;2023-02-24T03:04:16;11.13;;;2.17;;
2053;SDS011;1032;52.542;13.440;2023-02-24T03:06:49;9.63;;;3.40;;
2053;SDS011;1032;52.542;13.440;2023-02-24T03:09:21;8.40;;;2.37;;
2053;SDS011;1032;52.542;13.440;2023-02-24T03:11:54;14.83;;;3.30;;
2053;SDS011;1032;52.542;13.440;2023-02-24T03:14:27;13.17;;;3.13;;
2053;SDS011;1032;52.542;13.440;2023-02-24T03:16:59;13.23;;;2.80;;
2053;SDS011;1032;52.542;13.440;2023-02-24T03:19:30;12.40;;;3.53;;
2053;SDS011;1032;52.542;13.440;2023-02-24T03:22:05;11.60;;;2.60;;
2053;SDS011;1032;52.542;13.440;2023-02-24T03:24:37;12.67;;;3.17;;
2053;SDS011;1032;52.542;13.440;2023-02-24T03:27:09;20.53;;;3.87;;
2053;SDS011;1032;52.542;13.440;2023-02-24T03:29:40;5.33;;;2.10;;
2053;SDS011;1032;52.542;13.440;2023-02-24T03:32:11;7.80;;;2.83;;
2053;SDS011;1032;52.542;13.440;2023-02-24T03:34:46;9.03;;;2.83;;
2053;SDS011;1032;52.542;13.440;2023-02-24T03:37:18;9.07;;;3.10;;
2053;SDS011;1032;52.542;13.440;2023-02-24T03:39:50;8.53;;;2.60;;
2053;SDS011;1032;52.542;13.440;2023-02-24T03:42:20;14.50;;;3.23;;
2053;SDS011;1032;52.542;13.440;2023-02-24T03:44:48;13.43;;;3.10;;
2053;SDS011;1032;52.542;13.440;2023-02-24T03:47:15;9.50;;;3.33;;
2053;SDS011;1032;52.542;13.440;2023-02-24T03:49:45;18.93;;;4.63;;
2053;SDS011;1032;52.542;13.440;2023-02-24T03:52:19;14.40;;;3.00;;
2053;SDS011;1032;52.542;13.440;2023-02-24T03:54:58;16.80;;;3.87;;
2053;SDS011;1032;52.542;13.440;2023-02-24T03:57:41;13.13;;;4.00;;
2053;SDS011;1032;52.542;13.440;2023-02-24T04:00:30;12.30;;;2.90;;
2053;SDS011;1032;52.542;13.440;2023-02-24T04:03:05;9.57;;;2.80;;
2053;SDS011;1032;52.542;13.440;2023-02-24T04:05:43;8.17;;;3.27;;
2053;SDS011;1032;52.542;13.440;2023-02-24T04:08:15;10.17;;;3.40;;
2053;SDS011;1032;52.542;13.440;2023-02-24T04:10:45;13.20;;;3.50;;
2053;SDS011;1032;52.542;13.440;2023-02-24T04:13:21;10.33;;;3.23;;
2053;SDS011;1032;52.542;13.440;2023-02-24T04:16:00;15.20;;;5.00;;
2053;SDS011;1032;52.542;13.440;2023-02-24T04:18:34;10.43;;;3.87;;
2053;SDS011;1032;52.542;13.440;2023-02-24T04:21:01;13.47;;;4.37;;
2053;SDS011;1032;52.542;13.440;2023-02-24T04:23:35;10.70;;;3.80;;
2053;SDS011;1032;52.542;13.440;2023-02-24T04:26:05;12.13;;;3.23;;
2053;SDS011;1032;52.542;13.440;2023-02-24T04:28:36;13.80;;;4.10;;
2053;SDS011;1032;52.542;13.440;2023-02-24T04:31:06;15.60;;;3.60;;
2053;SDS011;1032;52.542;13.440;2023-02-24T04:33:42;11.83;;;3.53;;
2053;SDS011;1032;52.542;13.440;2023-02-24T04:36:14;12.53;;;3.67;;
2053;SDS011;1032;52.542;13.440;2023-02-24T04:38:43;19.53;;;4.50;;
2053;SDS011;1032;52.542;13.440;2023-02-24T04:41:11;17.70;;;4.70;;
2053;SDS011;1032;52.542;13.440;2023-02-24T04:43:44;17.13;;;4.23;;
2053;SDS011;1032;52.542;13.440;2023-02-24T04:46:12;14.50;;;4.90;;
2053;SDS011;1032;52.542;13.440;2023-02-24T04:48:38;20.80;;;4.70;;
2053;SDS011;1032;52.542;13.440;2023-02-24T04:51:05;16.43;;;4.50;;
2053;SDS011;1032;52.542;13.440;2023-02-24T04:53:32;18.53;;;4.63;;
2053;SDS011;1032;52.542;13.440;2023-02-24T04:56:02;12.80;;;3.90;;
2053;SDS011;1032;52.542;13.440;2023-02-24T04:58:33;14.37;;;4.60;;
2053;SDS011;1032;52.542;13.440;2023-02-24T05:01:04;12.03;;;4.10;;
2053;SDS011;1032;52.542;13.440;2023-02-24T05:03:34;8.10;;;3.10;;
2053;SDS011;1032;52.542;13.440;2023-02-24T05:06:01;10.37;;;3.50;;
2053;SDS011;1032;52.542;13.440;2023-02-24T05:08:30;11.57;;;3.83;;
2053;SDS011;1032;52.542;13.440;2023-02-24T05:10:57;13.57;;;3.17;;
2053;SDS011;1032;52.542;13.440;2023-02-24T05:13:29;7.70;;;4.37;;
2053;SDS011;1032;52.542;13.440;2023-02-24T05:15:57;16.27;;;4.03;;
2053;SDS011;1032;52.542;13.440;2023-02-24T05:18:28;7.83;;;3.50;;
2053;SDS011;1032;52.542;13.440;2023-02-24T05:21:04;14.27;;;4.03;;
2053;SDS011;1032;52.542;13.440;2023-02-24T05:23:51;7.90;;;3.43;;
2053;SDS011;1032;52.542;13.440;2023-02-24T05:26:19;7.80;;;3.70;;
2053;SDS011;1032;52.542;13.440;2023-02-24T05:28:51;16.60;;;4.70;;
2053;SDS011;1032;52.542;13.440;2023-02-24T05:31:21;9.43;;;5.70;;
2053;SDS011;1032;52.542;13.440;2023-02-24T05:33:50;9.23;;;3.10;;
2053;SDS011;1032;52.542;13.440;2023-02-24T05:36:20;10.13;;;3.57;;
2053;SDS011;1032;52.542;13.440;2023-02-24T05:38:47;5.67;;;3.50;;
2053;SDS011;1032;52.542;13.440;2023-02-24T05:41:19;6.53;;;3.20;;
2053;SDS011;1032;52.542;13.440;2023-02-24T05:43:48;18.30;;;5.80;;
2053;SDS011;1032;52.542;13.440;2023-02-24T05:46:20;8.57;;;3.60;;
2053;SDS011;1032;52.542;13.440;2023-02-24T05:48:52;7.87;;;2.80;;
2053;SDS011;1032;52.542;13.440;2023-02-24T05:51:21;7.43;;;3.27;;
2053;SDS011;1032;52.542;13.440;2023-02-24T05:53:48;6.93;;;3.00;;
2053;SDS011;1032;52.542;13.440;2023-02-24T05:56:19;6.90;;;2.97;;
2053;SDS011;1032;52.542;13.440;2023-02-24T05:58:46;12.17;;;3.03;;
2053;SDS011;1032;52.542;13.440;2023-02-24T06:01:14;20.73;;;3.33;;
2053;SDS011;1032;52.542;13.440;2023-02-24T06:03:45;7.67;;;3.10;;
2053;SDS011;1032;52.542;13.440;2023-02-24T06:06:12;6.40;;;2.27;;
2053;SDS011;1032;52.542;13.440;2023-02-24T06:08:40;7.90;;;2.50;;
2053;SDS011;1032;52.542;13.440;2023-02-24T06:11:14;8.40;;;3.57;;
2053;SDS011;1032;52.542;13.440;2023-02-24T06:13:42;9.83;;;2.63;;
2053;SDS011;1032;52.542;13.440;2023-02-24T06:16:11;7.83;;;2.63;;
2053;SDS011;1032;52.542;13.440;2023-02-24T06:18:39;9.53;;;3.93;;
2053;SDS011;1032;52.542;13.440;2023-02-24T06:21:07;6.60;;;2.97;;
2053;SDS011;1032;52.542;13.440;2023-02-24T06:23:36;16.37;;;2.90;;
2053;SDS011;1032;52.542;13.440;2023-02-24T06:26:04;10.73;;;2.40;;
2053;SDS011;1032;52.542;13.440;2023-02-24T06:28:37;8.80;;;4.07;;
2053;SDS011;1032;52.542;13.440;2023-02-24T06:31:04;12.53;;;2.27;;
2053;SDS011;1032;52.542;13.440;2023-02-24T06:33:32;7.87;;;2.57;;
2053;SDS011;1032;52.542;13.440;2023-02-24T06:36:00;6.40;;;2.83;;
2053;SDS011;1032;52.542;13.440;2023-02-24T06:38:30;11.87;;;3.47;;
2053;SDS011;1032;52.542;13.440;2023-02-24T06:40:57;7.37;;;2.30;;
2053;SDS011;1032;52.542;13.440;2023-02-24T06:43:24;11.60;;;2.40;;
2053;SDS011;1032;52.542;13.440;2023-02-24T06:45:51;8.10;;;2.47;;
2053;SDS011;1032;52.542;13.440;2023-02-24T06:48:19;9.80;;;2.30;;
2053;SDS011;1032;52.542;13.440;2023-02-24T06:50:47;6.50;;;2.10;;
2053;SDS011;1032;52.542;13.440;2023-02-24T06:53:15;5.90;;;3.10;;
2053;SDS011;1032;52.542;13.440;2023-02-24T06:55:44;4.43;;;3.50;;
2053;SDS011;1032;52.542;13.440;2023-02-24T06:58:14;6.73;;;2.50;;
2053;SDS011;1032;52.542;13.440;2023-02-24T07:00:42;11.87;;;2.90;;
2053;SDS011;1032;52.542;13.440;2023-02-24T07:03:20;14.90;;;2.20;;
2053;SDS011;1032;52.542;13.440;2023-02-24T07:05:50;6.43;;;2.50;;
2053;SDS011;1032;52.542;13.440;2023-02-24T07:08:34;7.20;;;2.20;;
2053;SDS011;1032;52.542;13.440;2023-02-24T07:11:03;9.13;;;2.80;;
2053;SDS011;1032;52.542;13.440;2023-02-24T07:13:32;7.90;;;2.67;;
2053;SDS011;1032;52.542;13.440;2023-02-24T07:15:59;8.67;;;2.90;;
2053;SDS011;1032;52.542;13.440;2023-02-24T07:18:31;9.40;;;4.07;;
2053;SDS011;1032;52.542;13.440;2023-02-24T07:21:00;10.50;;;3.90;;
2053;SDS011;1032;52.542;13.440;2023-02-24T07:23:29;12.67;;;3.27;;
2053;SDS011;1032;52.542;13.440;2023-02-24T07:25:56;7.23;;;2.53;;
2053;SDS011;1032;52.542;13.440;2023-02-24T07:28:24;10.87;;;3.17;;
2053;SDS011;1032;52.542;13.440;2023-02-24T07:30:51;5.10;;;2.90;;
2053;SDS011;1032;52.542;13.440;2023-02-24T07:33:18;10.97;;;3.30;;
2053;SDS011;1032;52.542;13.440;2023-02-24T07:35:48;7.47;;;2.60;;
2053;SDS011;1032;52.542;13.440;2023-02-24T07:38:15;11.80;;;3.00;;
2053;SDS011;1032;52.542;13.440;2023-02-24T07:40:46;13.17;;;2.77;;
2053;SDS011;1032;52.542;13.440;2023-02-24T07:43:14;10.00;;;2.90;;
2053;SDS011;1032;52.542;13.440;2023-02-24T07:45:45;11.57;;;3.80;;
2053;SDS011;1032;52.542;13.440;2023-02-24T07:48:12;16.17;;;3.10;;
2053;SDS011;1032;52.542;13.440;2023-02-24T07:50:39;8.40;;;2.30;;
2053;SDS011;1032;52.542;13.440;2023-02-24T07:53:07;9.23;;;3.00;;
2053;SDS011;1032;52.542;13.440;2023-02-24T07:55:34;9.93;;;4.20;;
2053;SDS011;1032;52.542;13.440;2023-02-24T07:58:01;10.87;;;3.40;;
2053;SDS011;1032;52.542;13.440;2023-02-24T08:00:30;7.97;;;3.50;;
2053;SDS011;1032;52.542;13.440;2023-02-24T08:03:15;10.97;;;3.80;;
2053;SDS011;1032;52.542;13.440;2023-02-24T08:05:41;7.93;;;2.47;;
2053;SDS011;1032;52.542;13.440;2023-02-24T08:08:08;8.73;;;3.27;;
2053;SDS011;1032;52.542;13.440;2023-02-24T08:10:39;9.30;;;3.03;;
2053;SDS011;1032;52.542;13.440;2023-02-24T08:13:05;6.80;;;2.87;;
2053;SDS011;1032;52.542;13.440;2023-02-24T08:15:35;13.03;;;4.23;;
2053;SDS011;1032;52.542;13.440;2023-02-24T08:18:02;7.47;;;3.13;;
2053;SDS011;1032;52.542;13.440;2023-02-24T08:20:31;16.40;;;3.10;;
2053;SDS011;1032;52.542;13.440;2023-02-24T08:23:16;9.70;;;3.47;;
2053;SDS011;1032;52.542;13.440;2023-02-24T08:25:43;12.17;;;3.20;;
2053;SDS011;1032;52.542;13.440;2023-02-24T08:28:10;10.30;;;2.50;;
2053;SDS011;1032;52.542;13.440;2023-02-24T08:30:38;8.70;;;2.70;;
2053;SDS011;1032;52.542;13.440;2023-02-24T08:33:09;9.10;;;2.63;;
2053;SDS011;1032;52.542;13.440;2023-02-24T08:35:41;14.53;;;3.90;;
2053;SDS011;1032;52.542;13.440;2023-02-24T08:38:09;9.83;;;2.83;;
2053;SDS011;1032;52.542;13.440;2023-02-24T08:40:39;11.07;;;3.27;;
2053;SDS011;1032;52.542;13.440;2023-02-24T08:43:20;10.70;;;3.00;;
2053;SDS011;1032;52.542;13.440;2023-02-24T08:45:59;7.80;;;3.37;;
2053;SDS011;1032;52.542;13.440;2023-02-24T08:48:28;37.33;;;25.70;;
2053;SDS011;1032;52.542;13.440;2023-02-24T08:51:04;25.23;;;12.57;;
2053;SDS011;1032;52.542;13.440;2023-02-24T08:53:35;10.03;;;3.10;;
2053;SDS011;1032;52.542;13.440;2023-02-24T08:56:04;4.83;;;2.23;;
2053;SDS011;1032;52.542;13.440;2023-02-24T08:58:35;8.97;;;3.33;;
2053;SDS011;1032;52.542;13.440;2023-02-24T09:01:05;9.63;;;3.60;;
2053;SDS011;1032;52.542;13.440;2023-02-24T09:03:43;5.60;;;3.37;;
2053;SDS011;1032;52.542;13.440;2023-02-24T09:06:13;13.67;;;4.20;;
2053;SDS011;1032;52.542;13.440;2023-02-24T09:08:42;7.80;;;3.20;;
2053;SDS011;1032;52.542;13.440;2023-02-24T09:11:11;10.90;;;4.70;;
2053;SDS011;1032;52.542;13.440;2023-02-24T09:13:40;5.57;;;2.90;;
2053;SDS011;1032;52.542;13.440;2023-02-24T09:16:16;12.23;;;3.27;;
2053;SDS011;1032;52.542;13.440;2023-02-24T09:18:43;17.50;;;7.50;;
2053;SDS011;1032;52.542;13.440;2023-02-24T09:21:10;8.53;;;4.30;;
2053;SDS011;1032;52.542;13.440;2023-02-24T09:24:30;11.50;;;4.10;;
2053;SDS011;1032;52.542;13.440;2023-02-24T09:26:57;13.70;;;3.80;;
2053;SDS011;1032;52.542;13.440;2023-02-24T09:29:24;16.70;;;4.20;;
2053;SDS011;1032;52.542;13.440;2023-02-24T09:32:13;7.07;;;2.83;;
2053;SDS011;1032;52.542;13.440;2023-02-24T09:34:40;10.73;;;3.50;;
2053;SDS011;1032;52.542;13.440;2023-02-24T09:37:10;11.77;;;3.93;;
2053;SDS011;1032;52.542;13.440;2023-02-24T09:39:49;7.50;;;2.60;;
2053;SDS011;1032;52.542;13.440;2023-02-24T09:42:39;12.70;;;4.10;;
2053;SDS011;1032;52.542;13.440;2023-02-24T09:45:12;6.17;;;3.50;;
2053;SDS011;1032;52.542;13.440;2023-02-24T09:47:57;8.33;;;3.20;;
2053;SDS011;1032;52.542;13.440;2023-02-24T09:50:27;14.70;;;3.00;;
2053;SDS011;1032;52.542;13.440;2023-02-24T09:53:12;12.07;;;3.23;;
2053;SDS011;1032;52.542;13.440;2023-02-24T09:55:43;16.87;;;9.87;;
2053;SDS011;1032;52.542;13.440;2023-02-24T09:58:26;39.70;;;27.80;;
2053;SDS011;1032;52.542;13.440;2023-02-24T10:01:05;10.97;;;3.20;;
2053;SDS011;1032;52.542;13.440;2023-02-24T10:03:55;8.27;;;2.97;;
2053;SDS011;1032;52.542;13.440;2023-02-24T10:06:30;7.00;;;3.27;;
2053;SDS011;1032;52.542;13.440;2023-02-24T10:09:05;7.13;;;2.40;;
2053;SDS011;1032;52.542;13.440;2023-02-24T10:11:39;7.17;;;4.00;;
2053;SDS011;1032;52.542;13.440;2023-02-24T10:14:18;9.73;;;2.70;;
2053;SDS011;1032;52.542;13.440;2023-02-24T10:16:50;6.80;;;3.10;;
2053;SDS011;1032;52.542;13.440;2023-02-24T10:19:44;11.10;;;3.30;;
2053;SDS011;1032;52.542;13.440;2023-02-24T10:22:21;6.83;;;2.50;;
2053;SDS011;1032;52.542;13.440;2023-02-24T10:25:02;7.50;;;3.17;;
2053;SDS011;1032;52.542;13.440;2023-02-24T10:27:39;11.70;;;3.20;;
2053;SDS011;1032;52.542;13.440;2023-02-24T10:30:23;4.83;;;1.90;;
2053;SDS011;1032;52.542;13.440;2023-02-24T10:33:04;10.10;;;2.50;;
2053;SDS011;1032;52.542;13.440;2023-02-24T10:35:42;11.73;;;3.20;;
2053;SDS011;1032;52.542;13.440;2023-02-24T10:38:09;8.73;;;2.80;;
2053;SDS011;1032;52.542;13.440;2023-02-24T10:40:43;6.90;;;2.23;;
2053;SDS011;1032;52.542;13.440;2023-02-24T10:43:21;8.57;;;2.67;;
2053;SDS011;1032;52.542;13.440;2023-02-24T10:45:54;5.60;;;1.97;;
2053;SDS011;1032;52.542;13.440;2023-02-24T10:48:30;6.53;;;2.53;;
2053;SDS011;1032;52.542;13.440;2023-02-24T10:51:09;4.33;;;1.67;;
2053;SDS011;1032;52.542;13.440;2023-02-24T10:53:45;7.10;;;2.57;;
2053;SDS011;1032;52.542;13.440;2023-02-24T10:56:18;4.17;;;2.13;;
2053;SDS011;1032;52.542;13.440;2023-02-24T10:58:58;21.50;;;3.37;;
2053;SDS011;1032;52.542;13.440;2023-02-24T11:01:45;9.43;;;4.47;;
2053;SDS011;1032;52.542;13.440;2023-02-24T11:04:28;6.00;;;2.33;;
2053;SDS011;1032;52.542;13.440;2023-02-24T11:07:28;7.10;;;2.20;;
2053;SDS011;1032;52.542;13.440;2023-02-24T11:10:10;13.33;;;3.03;;
2053;SDS011;1032;52.542;13.440;2023-02-24T11:12:43;7.30;;;3.07;;
2053;SDS011;1032;52.542;13.440;2023-02-24T11:15:30;7.00;;;3.53;;
2053;SDS011;1032;52.542;13.440;2023-02-24T11:18:17;7.33;;;2.40;;
2053;SDS011;1032;52.542;13.440;2023-02-24T11:20:47;6.60;;;2.60;;
2053;SDS011;1032;52.542;13.440;2023-02-24T11:23:19;5.87;;;2.50;;
2053;SDS011;1032;52.542;13.440;2023-02-24T11:25:50;7.30;;;2.63;;
2053;SDS011;1032;52.542;13.440;2023-02-24T11:28:24;6.70;;;2.70;;
2053;SDS011;1032;52.542;13.440;2023-02-24T11:31:00;9.43;;;3.20;;
2053;SDS011;1032;52.542;13.440;2023-02-24T11:33:36;4.67;;;1.90;;
2053;SDS011;1032;52.542;13.440;2023-02-24T11:36:09;10.77;;;2.70;;
2053;SDS011;1032;52.542;13.440;2023-02-24T11:38:45;7.00;;;2.97;;
2053;SDS011;1032;52.542;13.440;2023-02-24T11:41:20;6.57;;;3.27;;
2053;SDS011;1032;52.542;13.440;2023-02-24T11:43:55;7.10;;;2.83;;
2053;SDS011;1032;52.542;13.440;2023-02-24T11:46:30;9.68;;;3.33;;
2053;SDS011;1032;52.542;13.440;2023-02-24T11:49:04;7.20;;;3.47;;
2053;SDS011;1032;52.542;13.440;2023-02-24T11:51:35;8.00;;;3.00;;
2053;SDS011;1032;52.542;13.440;2023-02-24T11:54:04;7.57;;;3.37;;
2053;SDS011;1032;52.542;13.440;2023-02-24T11:56:35;8.47;;;2.70;;
2053;SDS011;1032;52.542;13.440;2023-02-24T11:59:08;4.70;;;2.90;;
2053;SDS011;1032;52.542;13.440;2023-02-24T12:01:42;6.10;;;2.20;;
2053;SDS011;1032;52.542;13.440;2023-02-24T12:04:15;7.57;;;2.70;;
2053;SDS011;1032;52.542;13.440;2023-02-24T12:06:46;8.43;;;3.20;;
2053;SDS011;1032;52.542;13.440;2023-02-24T12:09:18;6.50;;;2.73;;
2053;SDS011;1032;52.542;13.440;2023-02-24T12:11:51;6.30;;;2.70;;
2053;SDS011;1032;52.542;13.440;2023-02-24T12:14:23;10.87;;;3.20;;
2053;SDS011;1032;52.542;13.440;2023-02-24T12:16:56;6.87;;;2.13;;
2053;SDS011;1032;52.542;13.440;2023-02-24T12:19:30;3.90;;;2.20;;
2053;SDS011;1032;52.542;13.440;2023-02-24T12:22:01;5.80;;;2.20;;
2053;SDS011;1032;52.542;13.440;2023-02-24T12:24:34;5.30;;;2.63;;
2053;SDS011;1032;52.542;13.440;2023-02-24T12:27:08;15.07;;;3.30;;
2053;SDS011;1032;52.542;13.440;2023-02-24T12:29:49;7.30;;;3.30;;
2053;SDS011;1032;52.542;13.440;2023-02-24T12:32:33;9.30;;;4.60;;
2053;SDS011;1032;52.542;13.440;2023-02-24T12:35:12;9.87;;;3.00;;
2053;SDS011;1032;52.542;13.440;2023-02-24T12:37:52;5.50;;;2.67;;
2053;SDS011;1032;52.542;13.440;2023-02-24T12:40:28;7.10;;;2.43;;
2053;SDS011;1032;52.542;13.440;2023-02-24T12:43:07;9.03;;;3.20;;
2053;SDS011;1032;52.542;13.440;2023-02-24T12:45:47;9.20;;;2.37;;
2053;SDS011;1032;52.542;13.440;2023-02-24T12:51:19;4.80;;;2.40;;
2053;SDS011;1032;52.542;13.440;2023-02-24T12:53:56;9.23;;;2.90;;
2053;SDS011;1032;52.542;13.440;2023-02-24T12:56:32;9.90;;;2.57;;
2053;SDS011;1032;52.542;13.440;2023-02-24T12:59:10;6.40;;;2.47;;
2053;SDS011;1032;52.542;13.440;2023-02-24T13:01:44;5.00;;;2.40;;
2053;SDS011;1032;52.542;13.440;2023-02-24T13:04:21;5.30;;;2.33;;
2053;SDS011;1032;52.542;13.440;2023-02-24T13:06:59;8.43;;;2.50;;
2053;SDS011;1032;52.542;13.440;2023-02-24T13:09:36;5.33;;;2.20;;
2053;SDS011;1032;52.542;13.440;2023-02-24T13:12:12;8.70;;;3.87;;
2053;SDS011;1032;52.542;13.440;2023-02-24T13:14:44;6.23;;;2.80;;
2053;SDS011;1032;52.542;13.440;2023-02-24T13:17:17;9.83;;;2.63;;
2053;SDS011;1032;52.542;13.440;2023-02-24T13:19:46;7.23;;;3.10;;
2053;SDS011;1032;52.542;13.440;2023-02-24T13:22:24;6.27;;;2.80;;
2053;SDS011;1032;52.542;13.440;2023-02-24T13:24:58;6.70;;;2.80;;
2053;SDS011;1032;52.542;13.440;2023-02-24T13:27:29;10.85;;;3.60;;
2053;SDS011;1032;52.542;13.440;2023-02-24T13:29:59;5.70;;;3.27;;
2053;SDS011;1032;52.542;13.440;2023-02-24T13:32:32;5.10;;;2.70;;
2053;SDS011;1032;52.542;13.440;2023-02-24T13:35:02;5.47;;;2.70;;
2053;SDS011;1032;52.542;13.440;2023-02-24T13:37:32;6.57;;;2.87;;
2053;SDS011;1032;52.542;13.440;2023-02-24T13:40:11;9.77;;;3.87;;
2053;SDS011;1032;52.542;13.440;2023-02-24T13:42:55;4.00;;;2.33;;
2053;SDS011;1032;52.542;13.440;2023-02-24T13:45:23;5.00;;;2.93;;
2053;SDS011;1032;52.542;13.440;2023-02-24T13:48:04;5.30;;;2.83;;
2053;SDS011;1032;52.542;13.440;2023-02-24T13:50:42;4.43;;;2.40;;
2053;SDS011;1032;52.542;13.440;2023-02-24T13:53:26;5.33;;;2.47;;
2053;SDS011;1032;52.542;13.440;2023-02-24T13:56:02;5.23;;;3.07;;
2053;SDS011;1032;52.542;13.440;2023-02-24T14:01:43;6.17;;;2.63;;
2053;SDS011;1032;52.542;13.440;2023-02-24T14:04:14;4.20;;;2.70;;
2053;SDS011;1032;52.542;13.440;2023-02-24T14:06:44;6.90;;;3.30;;
2053;SDS011;1032;52.542;13.440;2023-02-24T14:09:13;6.73;;;3.27;;
2053;SDS011;1032;52.542;13.440;2023-02-24T14:11:42;6.07;;;3.07;;
2053;SDS011;1032;52.542;13.440;2023-02-24T14:14:11;3.90;;;2.40;;
2053;SDS011;1032;52.542;13.440;2023-02-24T14:16:42;4.88;;;3.50;;
2053;SDS011;1032;52.542;13.440;2023-02-24T14:19:14;7.30;;;3.50;;
2053;SDS011;1032;52.542;13.440;2023-02-24T14:21:45;4.43;;;2.60;;
2053;SDS011;1032;52.542;13.440;2023-02-24T14:24:14;4.10;;;3.10;;
2053;SDS011;1032;52.542;13.440;2023-02-24T14:26:42;10.57;;;3.70;;
2053;SDS011;1032;52.542;13.440;2023-02-24T14:29:10;4.60;;;2.80;;
2053;SDS011;1032;52.542;13.440;2023-02-24T14:31:40;3.50;;;2.60;;
2053;SDS011;1032;52.542;13.440;2023-02-24T14:34:11;6.40;;;3.43;;
2053;SDS011;1032;52.542;13.440;2023-02-24T14:36:43;6.33;;;3.20;;
2053;SDS011;1032;52.542;13.440;2023-02-24T14:39:13;6.87;;;3.00;;
2053;SDS011;1032;52.542;13.440;2023-02-24T14:41:41;4.83;;;3.10;;
2053;SDS011;1032;52.542;13.440;2023-02-24T14:44:16;6.57;;;2.77;;
2053;SDS011;1032;52.542;13.440;2023-02-24T14:46:46;4.30;;;3.27;;
2053;SDS011;1032;52.542;13.440;2023-02-24T14:49:17;4.30;;;3.00;;
2053;SDS011;1032;52.542;13.440;2023-02-24T14:51:49;3.90;;;2.80;;
2053;SDS011;1032;52.542;13.440;2023-02-24T14:54:25;7.37;;;2.77;;
2053;SDS011;1032;52.542;13.440;2023-02-24T14:57:02;8.37;;;3.73;;
2053;SDS011;1032;52.542;13.440;2023-02-24T14:59:30;5.70;;;2.73;;
2053;SDS011;1032;52.542;13.440;2023-02-24T15:02:00;7.27;;;2.80;;
2053;SDS011;1032;52.542;13.440;2023-02-24T15:04:33;5.37;;;3.17;;
2053;SDS011;1032;52.542;13.440;2023-02-24T15:07:02;6.03;;;3.00;;
2053;SDS011;1032;52.542;13.440;2023-02-24T15:09:35;11.50;;;8.30;;
2053;SDS011;1032;52.542;13.440;2023-02-24T15:12:07;5.20;;;4.07;;
2053;SDS011;1032;52.542;13.440;2023-02-24T15:14:37;6.07;;;3.17;;
2053;SDS011;1032;52.542;13.440;2023-02-24T15:17:07;5.90;;;3.37;;
2053;SDS011;1032;52.542;13.440;2023-02-24T15:19:41;3.63;;;3.10;;
2053;SDS011;1032;52.542;13.440;2023-02-24T15:22:18;4.43;;;3.00;;
2053;SDS011;1032;52.542;13.440;2023-02-24T15:24:47;5.80;;;3.30;;
2053;SDS011;1032;52.542;13.440;2023-02-24T15:27:21;3.53;;;2.40;;
2053;SDS011;1032;52.542;13.440;2023-02-24T15:29:57;5.60;;;3.10;;
2053;SDS011;1032;52.542;13.440;2023-02-24T15:32:27;3.97;;;2.93;;
2053;SDS011;1032;52.542;13.440;2023-02-24T15:34:57;4.63;;;2.70;;
2053;SDS011;1032;52.542;13.440;2023-02-24T15:37:24;4.50;;;2.67;;